createdAt,value
2018-05-24T00:00:32.430Z,168.20
2018-05-24T00:01:32.414Z,163.60
2018-05-24T00:02:33.141Z,179.80
2018-05-24T00:03:32.372Z,174.30
2018-05-24T00:04:32.350Z,162.80
2018-05-24T00:05:32.334Z,163.50
2018-05-24T00:06:32.316Z,158.60
2018-05-24T00:07:32.300Z,155.50
2018-05-24T00:08:32.277Z,156.00
2018-05-24T00:09:32.255Z,168.80
2018-05-24T00:10:32.234Z,164.80
2018-05-24T00:11:32.215Z,172.10
2018-05-24T00:12:32.198Z,172.70
2018-05-24T00:13:32.177Z,166.00
2018-05-24T00:14:32.156Z,168.70
2018-05-24T00:15:32.138Z,157.40
2018-05-24T00:16:32.121Z,173.40
2018-05-24T00:17:32.098Z,156.10
2018-05-24T00:18:32.078Z,171.20
2018-05-24T00:19:32.059Z,167.70
2018-05-24T00:20:32.040Z,155.50
2018-05-24T00:21:32.021Z,158.10
2018-05-24T00:22:32.001Z,160.60
2018-05-24T00:23:32.732Z,156.70
2018-05-24T00:24:31.988Z,167.60
2018-05-24T00:25:31.943Z,165.30
2018-05-24T00:26:31.923Z,175.10
2018-05-24T00:27:31.903Z,161.50
2018-05-24T00:28:31.886Z,163.50
2018-05-24T00:29:31.865Z,163.40
2018-05-24T00:30:31.844Z,169.70
2018-05-24T00:31:31.825Z,163.50
2018-05-24T00:32:31.805Z,170.10
2018-05-24T00:33:31.790Z,167.30
2018-05-24T00:34:31.767Z,146.00
2018-05-24T00:35:31.748Z,147.50
2018-05-24T00:36:31.729Z,156.60
2018-05-24T00:37:31.710Z,153.60
2018-05-24T00:38:31.690Z,141.70
2018-05-24T00:39:31.670Z,141.30
2018-05-24T00:40:31.650Z,130.20
2018-05-24T00:41:31.630Z,135.30
2018-05-24T00:42:31.610Z,120.60
2018-05-24T00:43:31.591Z,122.70
2018-05-24T00:44:33.174Z,128.80
2018-05-24T00:45:31.552Z,125.70
2018-05-24T00:46:31.531Z,131.10
2018-05-24T00:47:31.512Z,124.50
2018-05-24T00:48:31.494Z,122.60
2018-05-24T00:49:31.478Z,127.60
2018-05-24T00:50:31.454Z,129.90
2018-05-24T00:51:31.436Z,110.20
2018-05-24T00:52:31.417Z,129.80
2018-05-24T00:53:31.397Z,127.30
2018-05-24T00:54:31.376Z,120.00
2018-05-24T00:55:31.356Z,113.10
2018-05-24T00:56:31.337Z,118.20
2018-05-24T00:57:31.318Z,111.60
2018-05-24T00:58:31.298Z,111.40
2018-05-24T00:59:31.280Z,116.60
2018-05-24T01:00:31.259Z,121.40
2018-05-24T01:01:31.240Z,111.60
2018-05-24T01:02:31.219Z,115.00
2018-05-24T01:03:31.200Z,111.10
2018-05-24T01:04:31.181Z,95.40
2018-05-24T01:05:31.162Z,94.20
2018-05-24T01:06:31.141Z,87.70
2018-05-24T01:07:31.121Z,88.80
2018-05-24T01:08:31.105Z,87.60
2018-05-24T01:09:31.083Z,93.40
2018-05-24T01:10:31.063Z,90.80
2018-05-24T01:11:31.047Z,95.50
2018-05-24T01:12:31.023Z,92.10
2018-05-24T01:13:31.003Z,94.50
2018-05-24T01:14:30.983Z,94.00
2018-05-24T01:15:30.963Z,94.70
2018-05-24T01:16:30.945Z,95.20
2018-05-24T01:17:30.926Z,86.80
2018-05-24T01:18:30.906Z,94.20
2018-05-24T01:19:30.885Z,93.40
2018-05-24T01:20:30.867Z,82.70
2018-05-24T01:21:30.846Z,93.00
2018-05-24T01:22:30.827Z,82.30
2018-05-24T01:23:30.807Z,97.50
2018-05-24T01:24:30.788Z,86.00
2018-05-24T01:25:30.774Z,98.30
2018-05-24T01:26:30.748Z,99.80
2018-05-24T01:27:30.728Z,101.70
2018-05-24T01:28:30.708Z,95.60
2018-05-24T01:29:30.689Z,88.00
2018-05-24T01:30:30.670Z,86.80
2018-05-24T01:31:30.650Z,91.30
2018-05-24T01:32:30.631Z,90.10
2018-05-24T01:33:30.611Z,87.00
2018-05-24T01:34:30.591Z,89.90
2018-05-24T01:35:30.572Z,88.20
2018-05-24T01:36:30.551Z,97.00
2018-05-24T01:37:30.533Z,97.70
2018-05-24T01:38:30.512Z,92.80
2018-05-24T01:39:30.491Z,95.40
2018-05-24T01:40:30.479Z,90.50
2018-05-24T01:41:30.454Z,96.30
2018-05-24T01:42:30.433Z,89.00
2018-05-24T01:43:30.413Z,92.20
2018-05-24T01:44:30.394Z,99.90
2018-05-24T01:45:30.375Z,97.80
2018-05-24T01:46:30.354Z,101.90
2018-05-24T01:47:30.335Z,97.50
2018-05-24T01:48:30.320Z,103.30
2018-05-24T01:49:30.296Z,101.50
2018-05-24T01:50:30.275Z,93.70
2018-05-24T01:51:30.256Z,99.70
2018-05-24T01:52:30.237Z,103.60
2018-05-24T01:53:30.217Z,102.00
2018-05-24T01:54:30.201Z,102.90
2018-05-24T01:55:30.178Z,96.70
2018-05-24T01:56:30.159Z,98.40
2018-05-24T01:57:30.139Z,92.40
2018-05-24T01:58:30.118Z,90.50
2018-05-24T01:59:30.100Z,99.90
2018-05-24T02:00:30.081Z,89.80
2018-05-24T02:01:30.059Z,90.60
2018-05-24T02:02:30.042Z,88.10
2018-05-24T02:03:30.019Z,99.90
2018-05-24T02:04:30.005Z,92.00
2018-05-24T02:05:29.980Z,83.60
2018-05-24T02:06:29.961Z,77.80
2018-05-24T02:07:29.941Z,84.40
2018-05-24T02:08:29.922Z,87.50
2018-05-24T02:09:29.908Z,90.60
2018-05-24T02:10:29.885Z,95.70
2018-05-24T02:11:29.863Z,87.40
2018-05-24T02:12:29.843Z,93.70
2018-05-24T02:13:29.824Z,89.50
2018-05-24T02:14:29.803Z,92.50
2018-05-24T02:15:29.784Z,78.70
2018-05-24T02:16:29.765Z,80.30
2018-05-24T02:17:29.744Z,83.50
2018-05-24T02:18:29.723Z,81.30
2018-05-24T02:19:29.704Z,86.20
2018-05-24T02:20:29.684Z,76.60
2018-05-24T02:21:29.665Z,83.10
2018-05-24T02:22:29.645Z,83.30
2018-05-24T02:23:29.625Z,80.80
2018-05-24T02:24:29.606Z,88.70
2018-05-24T02:25:29.585Z,83.60
2018-05-24T02:26:29.566Z,77.80
2018-05-24T02:27:29.548Z,80.50
2018-05-24T02:28:29.530Z,77.50
2018-05-24T02:29:29.507Z,76.60
2018-05-24T02:30:29.487Z,74.20
2018-05-24T02:31:29.467Z,69.30
2018-05-24T02:32:29.447Z,68.30
2018-05-24T02:33:29.429Z,69.00
2018-05-24T02:34:29.409Z,58.20
2018-05-24T02:35:29.388Z,54.60
2018-05-24T02:36:29.369Z,49.00
2018-05-24T02:37:29.350Z,46.90
2018-05-24T02:38:29.328Z,43.20
2018-05-24T02:39:29.309Z,50.90
2018-05-24T02:40:29.369Z,45.40
2018-05-24T02:41:29.269Z,44.10
2018-05-24T02:42:29.249Z,49.00
2018-05-24T02:43:29.228Z,45.70
2018-05-24T02:44:29.210Z,43.00
2018-05-24T02:45:29.190Z,40.80
2018-05-24T02:46:29.169Z,39.10
2018-05-24T02:47:29.150Z,40.40
2018-05-24T02:48:29.129Z,38.90
2018-05-24T02:49:29.113Z,45.30
2018-05-24T02:50:29.088Z,45.30
2018-05-24T02:51:29.068Z,42.80
2018-05-24T02:52:29.049Z,47.10
2018-05-24T02:53:29.032Z,45.60
2018-05-24T02:54:29.006Z,52.40
2018-05-24T02:55:28.989Z,52.10
2018-05-24T02:56:28.967Z,46.20
2018-05-24T02:57:28.947Z,48.10
2018-05-24T02:58:28.927Z,47.80
2018-05-24T02:59:28.907Z,45.40
2018-05-24T03:00:28.888Z,49.50
2018-05-24T03:01:28.872Z,47.80
2018-05-24T03:02:28.848Z,55.60
2018-05-24T03:03:28.826Z,47.70
2018-05-24T03:04:28.806Z,46.10
2018-05-24T03:05:28.790Z,47.20
2018-05-24T03:06:28.770Z,52.70
2018-05-24T03:07:28.745Z,49.50
2018-05-24T03:08:28.726Z,52.70
2018-05-24T03:09:28.706Z,50.60
2018-05-24T03:10:28.686Z,45.20
2018-05-24T03:11:28.665Z,47.00
2018-05-24T03:12:28.646Z,53.50
2018-05-24T03:13:28.624Z,50.30
2018-05-24T03:14:28.699Z,51.20
2018-05-24T03:15:28.584Z,50.80
2018-05-24T03:16:28.563Z,47.20
2018-05-24T03:17:28.544Z,48.10
2018-05-24T03:18:28.521Z,42.10
2018-05-24T03:19:28.503Z,47.90
2018-05-24T03:20:28.483Z,47.50
2018-05-24T03:21:28.463Z,45.40
2018-05-24T03:22:28.443Z,45.90
2018-05-24T03:23:28.422Z,49.10
2018-05-24T03:24:28.401Z,44.70
2018-05-24T03:25:28.381Z,47.00
2018-05-24T03:26:28.361Z,47.60
2018-05-24T03:27:28.339Z,46.70
2018-05-24T03:28:28.320Z,42.20
2018-05-24T03:29:28.301Z,44.10
2018-05-24T03:30:28.280Z,46.60
2018-05-24T03:31:28.261Z,48.20
2018-05-24T03:32:28.238Z,43.90
2018-05-24T03:33:28.220Z,48.50
2018-05-24T03:34:28.201Z,43.80
2018-05-24T03:35:28.177Z,44.60
2018-05-24T03:36:28.158Z,49.70
2018-05-24T03:37:28.141Z,39.60
2018-05-24T03:38:28.116Z,40.90
2018-05-24T03:39:28.096Z,38.70
2018-05-24T03:40:28.079Z,42.10
2018-05-24T03:41:28.057Z,40.30
2018-05-24T03:42:28.040Z,35.00
2018-05-24T03:43:28.020Z,37.90
2018-05-24T03:44:27.997Z,38.60
2018-05-24T03:45:27.977Z,38.20
2018-05-24T03:46:27.956Z,35.70
2018-05-24T03:47:27.934Z,39.00
2018-05-24T03:48:27.916Z,38.30
2018-05-24T03:49:27.894Z,33.80
2018-05-24T03:50:27.873Z,44.30
2018-05-24T03:51:27.853Z,38.00
2018-05-24T03:52:27.833Z,36.80
2018-05-24T03:53:27.817Z,39.40
2018-05-24T03:54:27.793Z,44.30
2018-05-24T03:55:27.773Z,41.20
2018-05-24T03:56:28.508Z,41.10
2018-05-24T03:57:27.734Z,45.30
2018-05-24T03:58:27.712Z,42.10
2018-05-24T03:59:27.691Z,42.00
2018-05-24T04:00:27.671Z,41.10
2018-05-24T04:01:27.654Z,39.20
2018-05-24T04:02:27.635Z,40.80
2018-05-24T04:03:27.610Z,34.60
2018-05-24T04:04:27.591Z,34.50
2018-05-24T04:05:27.572Z,34.10
2018-05-24T04:06:27.550Z,35.50
2018-05-24T04:07:27.532Z,37.70
2018-05-24T04:08:27.509Z,32.80
2018-05-24T04:09:27.509Z,32.10
2018-05-24T04:10:27.469Z,37.20
2018-05-24T04:11:27.450Z,38.50
2018-05-24T04:12:27.428Z,33.40
2018-05-24T04:13:27.408Z,40.50
2018-05-24T04:14:27.387Z,41.90
2018-05-24T04:15:27.368Z,41.80
2018-05-24T04:16:27.348Z,35.10
2018-05-24T04:17:27.329Z,33.60
2018-05-24T04:18:27.308Z,36.20
2018-05-24T04:19:27.287Z,35.40
2018-05-24T04:20:27.268Z,38.90
2018-05-24T04:21:27.246Z,37.80
2018-05-24T04:22:27.226Z,36.00
2018-05-24T04:23:27.206Z,35.20
2018-05-24T04:24:27.185Z,37.60
2018-05-24T04:25:27.166Z,36.70
2018-05-24T04:26:27.145Z,38.00
2018-05-24T04:27:27.125Z,38.90
2018-05-24T04:28:27.106Z,39.10
2018-05-24T04:29:27.085Z,35.80
2018-05-24T04:30:27.064Z,39.20
2018-05-24T04:31:27.044Z,38.20
2018-05-24T04:32:27.026Z,30.20
2018-05-24T04:33:27.005Z,27.10
2018-05-24T04:34:26.983Z,29.60
2018-05-24T04:35:26.964Z,33.70
2018-05-24T04:36:26.943Z,31.20
2018-05-24T04:37:27.003Z,31.50
2018-05-24T04:38:26.902Z,30.90
2018-05-24T04:39:26.884Z,33.40
2018-05-24T04:40:26.862Z,32.70
2018-05-24T04:41:26.842Z,34.40
2018-05-24T04:42:26.822Z,35.40
2018-05-24T04:43:26.803Z,34.90
2018-05-24T04:44:26.782Z,39.80
2018-05-24T04:45:26.801Z,39.40
2018-05-24T04:46:26.742Z,35.90
2018-05-24T04:47:26.721Z,37.00
2018-05-24T04:48:26.701Z,34.60
2018-05-24T04:49:26.683Z,36.60
2018-05-24T04:50:26.660Z,34.40
2018-05-24T04:51:26.641Z,39.30
2018-05-24T04:52:26.622Z,34.60
2018-05-24T04:53:26.602Z,38.80
2018-05-24T04:54:26.581Z,39.00
2018-05-24T04:55:26.562Z,45.90
2018-05-24T04:56:26.544Z,41.30
2018-05-24T04:57:26.521Z,41.90
2018-05-24T04:58:26.501Z,40.60
2018-05-24T04:59:26.480Z,43.10
2018-05-24T05:00:26.461Z,46.10
2018-05-24T05:01:26.441Z,39.80
2018-05-24T05:02:26.425Z,40.40
2018-05-24T05:03:26.401Z,46.70
2018-05-24T05:04:26.382Z,47.40
2018-05-24T05:05:26.362Z,49.10
2018-05-24T05:06:26.340Z,49.50
2018-05-24T05:07:26.321Z,45.60
2018-05-24T05:08:26.303Z,50.50
2018-05-24T05:09:28.535Z,46.40
2018-05-24T05:10:26.262Z,48.70
2018-05-24T05:11:26.244Z,42.70
2018-05-24T05:12:26.223Z,49.00
2018-05-24T05:13:26.231Z,55.00
2018-05-24T05:14:26.183Z,51.90
2018-05-24T05:15:26.164Z,49.90
2018-05-24T05:16:26.144Z,48.50
2018-05-24T05:17:26.124Z,43.30
2018-05-24T05:18:26.104Z,42.00
2018-05-24T05:19:26.116Z,45.20
2018-05-24T05:20:26.064Z,39.20
2018-05-24T05:21:26.045Z,42.00
2018-05-24T05:22:26.023Z,38.90
2018-05-24T05:23:26.078Z,39.30
2018-05-24T05:24:25.983Z,40.40
2018-05-24T05:25:25.964Z,40.90
2018-05-24T05:26:25.947Z,37.70
2018-05-24T05:27:25.926Z,42.10
2018-05-24T05:28:25.907Z,42.00
2018-05-24T05:29:25.885Z,40.00
2018-05-24T05:30:25.866Z,35.90
2018-05-24T05:31:25.849Z,35.30
2018-05-24T05:32:25.826Z,39.30
2018-05-24T05:33:25.810Z,38.90
2018-05-24T05:34:25.800Z,37.00
2018-05-24T05:35:25.772Z,32.60
2018-05-24T05:36:30.253Z,37.70
2018-05-24T05:37:25.729Z,31.60
2018-05-24T05:38:25.713Z,35.10
2018-05-24T05:39:25.704Z,35.60
2018-05-24T05:40:25.671Z,35.20
2018-05-24T05:41:25.650Z,30.80
2018-05-24T05:42:26.382Z,29.70
2018-05-24T05:43:25.616Z,30.20
2018-05-24T05:44:25.592Z,27.60
2018-05-24T05:45:25.573Z,24.80
2018-05-24T05:46:25.554Z,26.60
2018-05-24T05:47:25.534Z,29.40
2018-05-24T05:48:25.514Z,29.00
2018-05-24T05:49:25.516Z,32.60
2018-05-24T05:50:25.476Z,31.20
2018-05-24T05:51:25.456Z,31.70
2018-05-24T05:52:25.436Z,26.60
2018-05-24T05:53:25.418Z,27.70
2018-05-24T05:54:25.412Z,30.30
2018-05-24T05:55:25.377Z,30.00
2018-05-24T05:56:25.359Z,28.60
2018-05-24T05:57:25.340Z,31.90
2018-05-24T05:58:25.323Z,29.80
2018-05-24T05:59:25.300Z,33.10
2018-05-24T06:00:25.281Z,36.70
2018-05-24T06:01:25.261Z,29.00
2018-05-24T06:02:25.242Z,30.40
2018-05-24T06:03:25.223Z,30.80
2018-05-24T06:04:25.203Z,27.40
2018-05-24T06:05:25.184Z,27.60
2018-05-24T06:06:25.165Z,27.80
2018-05-24T06:07:25.145Z,25.60
2018-05-24T06:08:25.130Z,28.20
2018-05-24T06:09:25.108Z,28.00
2018-05-24T06:10:25.086Z,26.50
2018-05-24T06:11:25.068Z,29.80
2018-05-24T06:12:25.050Z,27.80
2018-05-24T06:13:25.030Z,24.10
2018-05-24T06:14:25.760Z,28.30
2018-05-24T06:15:25.071Z,29.90
2018-05-24T06:16:24.972Z,31.60
2018-05-24T06:17:24.954Z,29.40
2018-05-24T06:18:24.933Z,27.70
2018-05-24T06:19:24.915Z,28.00
2018-05-24T06:20:24.895Z,30.70
2018-05-24T06:21:24.876Z,29.30
2018-05-24T06:22:24.858Z,29.20
2018-05-24T06:23:24.843Z,28.90
2018-05-24T06:24:24.819Z,30.30
2018-05-24T06:25:28.553Z,31.10
2018-05-24T06:26:24.782Z,30.20
2018-05-24T06:27:24.763Z,27.70
2018-05-24T06:28:24.772Z,28.80
2018-05-24T06:29:24.724Z,28.20
2018-05-24T06:30:24.705Z,28.50
2018-05-24T06:31:28.440Z,28.70
2018-05-24T06:32:24.669Z,32.60
2018-05-24T06:33:24.652Z,29.60
2018-05-24T06:34:24.630Z,27.40
2018-05-24T06:35:24.610Z,27.30
2018-05-24T06:36:24.593Z,24.50
2018-05-24T06:37:24.573Z,25.20
2018-05-24T06:38:24.554Z,27.70
2018-05-24T06:39:24.536Z,25.50
2018-05-24T06:40:24.555Z,23.80
2018-05-24T06:41:24.499Z,22.50
2018-05-24T06:42:24.478Z,21.10
2018-05-24T06:43:24.460Z,22.70
2018-05-24T06:44:24.442Z,25.10
2018-05-24T06:45:24.424Z,21.60
2018-05-24T06:46:24.446Z,23.20
2018-05-24T06:47:24.385Z,22.00
2018-05-24T06:48:24.368Z,25.10
2018-05-24T06:49:24.349Z,20.40
2018-05-24T06:50:24.329Z,22.60
2018-05-24T06:51:24.312Z,20.30
2018-05-24T06:52:24.292Z,20.10
2018-05-24T06:53:24.274Z,19.50
2018-05-24T06:54:24.255Z,18.60
2018-05-24T06:55:24.238Z,19.10
2018-05-24T06:56:24.219Z,19.90
2018-05-24T06:57:24.205Z,15.50
2018-05-24T06:58:24.180Z,14.60
2018-05-24T06:59:24.162Z,14.90
2018-05-24T07:00:24.144Z,14.90
2018-05-24T07:01:24.127Z,16.50
2018-05-24T07:02:24.108Z,14.40
2018-05-24T07:03:24.840Z,13.40
2018-05-24T07:04:24.072Z,16.50
2018-05-24T07:05:24.054Z,17.70
2018-05-24T07:06:24.034Z,14.50
2018-05-24T07:07:24.015Z,15.10
2018-05-24T07:08:23.997Z,15.80
2018-05-24T07:09:23.980Z,13.70
2018-05-24T07:10:23.960Z,14.50
2018-05-24T07:11:23.943Z,11.50
2018-05-24T07:12:23.925Z,13.30
2018-05-24T07:13:23.908Z,12.80
2018-05-24T07:14:27.642Z,13.90
2018-05-24T07:15:23.873Z,13.10
2018-05-24T07:16:23.853Z,12.60
2018-05-24T07:17:23.835Z,13.20
2018-05-24T07:18:23.817Z,14.80
2018-05-24T07:19:23.800Z,12.40
2018-05-24T07:20:23.780Z,12.50
2018-05-24T07:21:23.764Z,13.20
2018-05-24T07:22:23.746Z,10.50
2018-05-24T07:23:23.727Z,10.50
2018-05-24T07:24:23.714Z,16.50
2018-05-24T07:25:23.691Z,12.40
2018-05-24T07:26:23.681Z,11.10
2018-05-24T07:27:23.656Z,11.10
2018-05-24T07:28:23.637Z,10.90
2018-05-24T07:29:23.621Z,10.10
2018-05-24T07:30:23.601Z,11.00
2018-05-24T07:31:23.583Z,9.00
2018-05-24T07:32:23.566Z,9.80
2018-05-24T07:33:23.548Z,8.70
2018-05-24T07:34:23.528Z,8.90
2018-05-24T07:35:23.510Z,8.30
2018-05-24T07:36:23.492Z,8.10
2018-05-24T07:37:23.474Z,7.70
2018-05-24T07:38:23.458Z,8.80
2018-05-24T07:39:23.438Z,8.60
2018-05-24T07:40:23.421Z,8.50
2018-05-24T07:41:23.402Z,8.50
2018-05-24T07:42:23.384Z,6.30
2018-05-24T07:43:23.366Z,5.40
2018-05-24T07:44:23.349Z,6.00
2018-05-24T07:45:23.329Z,6.70
2018-05-24T07:46:23.311Z,9.30
2018-05-24T07:47:25.547Z,5.70
2018-05-24T07:48:23.277Z,5.40
2018-05-24T07:49:23.259Z,4.90
2018-05-24T07:50:23.242Z,5.80
2018-05-24T07:51:23.227Z,4.60
2018-05-24T07:52:23.205Z,3.80
2018-05-24T07:53:23.937Z,4.90
2018-05-24T07:54:23.168Z,4.50
2018-05-24T07:55:23.152Z,4.90
2018-05-24T07:56:23.134Z,4.80
2018-05-24T07:57:23.117Z,5.20
2018-05-24T07:58:23.097Z,4.70
2018-05-24T07:59:23.086Z,5.50
2018-05-24T08:00:23.064Z,5.10
2018-05-24T08:01:23.048Z,4.20
2018-05-24T08:02:23.028Z,4.50
2018-05-24T08:03:23.011Z,5.00
2018-05-24T08:04:22.999Z,5.20
2018-05-24T08:05:22.979Z,4.40
2018-05-24T08:06:22.960Z,5.30
2018-05-24T08:07:22.943Z,4.70
2018-05-24T08:08:22.928Z,5.00
2018-05-24T08:09:22.913Z,4.10
2018-05-24T08:10:22.893Z,4.50
2018-05-24T08:11:22.882Z,4.50
2018-05-24T08:12:22.868Z,6.50
2018-05-24T08:13:22.843Z,4.60
2018-05-24T08:14:22.827Z,4.60
2018-05-24T08:15:22.812Z,3.90
2018-05-24T08:16:22.794Z,4.60
2018-05-24T08:17:22.778Z,5.00
2018-05-24T08:18:22.762Z,4.40
2018-05-24T08:19:22.754Z,4.60
2018-05-24T08:20:22.730Z,5.30
2018-05-24T08:21:22.714Z,5.10
2018-05-24T08:22:22.723Z,4.50
2018-05-24T08:23:22.684Z,4.70
2018-05-24T08:24:22.664Z,5.70
2018-05-24T08:25:22.650Z,5.10
2018-05-24T08:26:22.633Z,5.30
2018-05-24T08:27:22.616Z,5.40
2018-05-24T08:28:22.601Z,4.90
2018-05-24T08:29:22.589Z,5.10
2018-05-24T08:30:22.571Z,5.10
2018-05-24T08:31:22.552Z,5.60
2018-05-24T08:32:22.536Z,4.90
2018-05-24T08:33:22.520Z,5.70
2018-05-24T08:34:22.505Z,6.30
2018-05-24T08:35:22.488Z,5.60
2018-05-24T08:36:22.472Z,5.80
2018-05-24T08:37:22.457Z,5.30
2018-05-24T08:38:22.441Z,5.90
2018-05-24T08:39:22.426Z,5.80
2018-05-24T08:40:24.663Z,6.90
2018-05-24T08:41:22.394Z,6.30
2018-05-24T08:42:22.378Z,5.30
2018-05-24T08:43:22.363Z,5.30
2018-05-24T08:44:22.348Z,5.70
2018-05-24T08:45:22.333Z,5.70
2018-05-24T08:46:22.315Z,6.30
2018-05-24T08:47:22.385Z,5.50
2018-05-24T08:48:22.286Z,7.00
2018-05-24T08:49:22.271Z,9.80
2018-05-24T08:50:22.254Z,6.70
2018-05-24T08:51:22.239Z,6.30
2018-05-24T08:52:22.225Z,5.80
2018-05-24T08:53:22.239Z,6.20
2018-05-24T08:54:22.193Z,7.10
2018-05-24T08:55:22.177Z,6.50
2018-05-24T08:56:22.163Z,7.00
2018-05-24T08:57:22.149Z,5.80
2018-05-24T08:58:22.132Z,6.30
2018-05-24T08:59:22.116Z,7.50
2018-05-24T09:00:22.102Z,6.10
2018-05-24T09:01:22.144Z,6.00
2018-05-24T09:02:22.071Z,5.40
2018-05-24T09:03:22.055Z,6.00
2018-05-24T09:04:22.042Z,6.60
2018-05-24T09:05:22.023Z,5.30
2018-05-24T09:06:22.008Z,5.90
2018-05-24T09:07:21.991Z,5.90
2018-05-24T09:08:21.977Z,5.60
2018-05-24T09:09:21.961Z,6.60
2018-05-24T09:10:21.945Z,5.90
2018-05-24T09:11:21.929Z,6.20
2018-05-24T09:12:21.914Z,7.40
2018-05-24T09:13:21.899Z,5.50
2018-05-24T09:14:21.883Z,9.10
2018-05-24T09:15:21.866Z,5.70
2018-05-24T09:16:21.852Z,6.00
2018-05-24T09:17:21.835Z,6.60
2018-05-24T09:18:21.820Z,6.80
2018-05-24T09:19:21.804Z,6.00
2018-05-24T09:20:21.787Z,6.20
2018-05-24T09:21:21.772Z,5.10
2018-05-24T09:22:21.756Z,6.60
2018-05-24T09:23:21.741Z,6.60
2018-05-24T09:24:21.726Z,6.10
2018-05-24T09:25:21.710Z,6.00
2018-05-24T09:26:21.694Z,7.40
2018-05-24T09:27:21.684Z,6.40
2018-05-24T09:28:21.663Z,7.00
2018-05-24T09:29:21.699Z,5.80
2018-05-24T09:30:21.631Z,5.30
2018-05-24T09:31:21.614Z,5.80
2018-05-24T09:32:21.598Z,7.00
2018-05-24T09:33:21.584Z,7.50
2018-05-24T09:34:21.566Z,6.10
2018-05-24T09:35:21.554Z,5.10
2018-05-24T09:36:21.621Z,5.50
2018-05-24T09:37:21.519Z,5.10
2018-05-24T09:38:21.512Z,5.80
2018-05-24T09:39:21.494Z,5.50
2018-05-24T09:40:21.473Z,5.70
2018-05-24T09:41:21.459Z,7.00
2018-05-24T09:42:21.512Z,5.90
2018-05-24T09:43:21.428Z,5.60
2018-05-24T09:44:21.411Z,5.40
2018-05-24T09:45:21.395Z,7.90
2018-05-24T09:46:22.881Z,6.30
2018-05-24T09:47:21.364Z,7.80
2018-05-24T09:48:21.353Z,6.40
2018-05-24T09:49:21.333Z,6.30
2018-05-24T09:50:21.317Z,7.00
2018-05-24T09:51:21.303Z,6.60
2018-05-24T09:52:22.037Z,7.00
2018-05-24T09:53:21.272Z,5.50
2018-05-24T09:54:21.255Z,5.60
2018-05-24T09:55:21.280Z,6.80
2018-05-24T09:56:21.224Z,6.20
2018-05-24T09:57:21.210Z,6.20
2018-05-24T09:58:21.194Z,6.50
2018-05-24T09:59:21.178Z,8.70
2018-05-24T10:00:21.164Z,8.10
2018-05-24T10:01:21.149Z,6.70
2018-05-24T10:02:21.132Z,6.30
2018-05-24T10:03:21.870Z,6.70
2018-05-24T10:04:21.103Z,5.80
2018-05-24T10:05:21.089Z,7.80
2018-05-24T10:06:21.075Z,6.10
2018-05-24T10:07:21.058Z,6.80
2018-05-24T10:08:21.119Z,6.40
2018-05-24T10:09:21.030Z,7.70
2018-05-24T10:10:21.012Z,10.40
2018-05-24T10:11:20.998Z,7.00
2018-05-24T10:12:20.984Z,7.30
2018-05-24T10:13:20.971Z,7.10
2018-05-24T10:14:27.710Z,7.60
2018-05-24T10:15:20.938Z,8.00
2018-05-24T10:16:21.074Z,6.40
2018-05-24T10:17:20.910Z,6.10
2018-05-24T10:18:20.894Z,5.90
2018-05-24T10:19:20.880Z,7.20
2018-05-24T10:20:21.619Z,5.70
2018-05-24T10:21:20.850Z,5.90
2018-05-24T10:22:20.834Z,5.60
2018-05-24T10:23:20.819Z,5.10
2018-05-24T10:24:20.806Z,6.30
2018-05-24T10:25:20.790Z,4.70
2018-05-24T10:26:20.775Z,5.00
2018-05-24T10:27:20.761Z,6.70
2018-05-24T10:28:20.747Z,4.80
2018-05-24T10:29:20.754Z,5.30
2018-05-24T10:30:20.715Z,5.80
2018-05-24T10:31:22.955Z,6.40
2018-05-24T10:32:20.694Z,6.00
2018-05-24T10:33:20.675Z,5.40
2018-05-24T10:34:20.657Z,4.40
2018-05-24T10:35:20.645Z,4.60
2018-05-24T10:36:20.631Z,4.40
2018-05-24T10:37:22.116Z,3.30
2018-05-24T10:38:20.598Z,3.80
2018-05-24T10:39:20.584Z,4.40
2018-05-24T10:40:20.570Z,3.60
2018-05-24T10:41:20.555Z,2.80
2018-05-24T10:42:20.541Z,4.70
2018-05-24T10:43:20.526Z,4.60
2018-05-24T10:44:20.511Z,5.50
2018-05-24T10:45:20.496Z,5.20
2018-05-24T10:46:20.481Z,5.50
2018-05-24T10:47:20.467Z,5.00
2018-05-24T10:48:20.455Z,5.10
2018-05-24T10:49:20.444Z,5.10
2018-05-24T10:50:20.424Z,3.60
2018-05-24T10:51:20.449Z,4.00
2018-05-24T10:52:20.394Z,3.60
2018-05-24T10:53:20.380Z,3.80
2018-05-24T10:54:20.365Z,3.80
2018-05-24T10:55:20.350Z,3.60
2018-05-24T10:56:20.335Z,5.90
2018-05-24T10:57:20.321Z,3.70
2018-05-24T10:58:20.306Z,4.80
2018-05-24T10:59:20.296Z,5.50
2018-05-24T11:00:20.281Z,4.40
2018-05-24T11:01:20.268Z,3.70
2018-05-24T11:02:20.247Z,4.80
2018-05-24T11:03:20.266Z,4.00
2018-05-24T11:04:20.219Z,6.10
2018-05-24T11:05:20.204Z,3.80
2018-05-24T11:06:20.252Z,3.90
2018-05-24T11:07:20.173Z,3.60
2018-05-24T11:08:20.159Z,6.20
2018-05-24T11:09:20.144Z,4.00
2018-05-24T11:10:20.129Z,3.20
2018-05-24T11:11:20.116Z,3.90
2018-05-24T11:12:20.101Z,4.30
2018-05-24T11:13:20.088Z,3.70
2018-05-24T11:14:20.071Z,6.50
2018-05-24T11:15:20.057Z,3.10
2018-05-24T11:16:20.044Z,3.60
2018-05-24T11:17:20.029Z,4.70
2018-05-24T11:18:20.013Z,4.00
2018-05-24T11:19:20.800Z,3.40
2018-05-24T11:20:19.984Z,4.00
2018-05-24T11:21:19.971Z,3.50
2018-05-24T11:22:19.954Z,3.90
2018-05-24T11:23:19.941Z,3.80
2018-05-24T11:24:19.933Z,4.60
2018-05-24T11:25:20.078Z,3.00
2018-05-24T11:26:19.902Z,5.00
2018-05-24T11:27:19.883Z,3.40
2018-05-24T11:28:19.869Z,4.80
2018-05-24T11:29:19.854Z,2.80
2018-05-24T11:30:19.838Z,3.70
2018-05-24T11:31:19.829Z,3.60
2018-05-24T11:32:19.811Z,3.40
2018-05-24T11:33:19.797Z,3.60
2018-05-24T11:34:19.780Z,3.30
2018-05-24T11:35:19.767Z,5.10
2018-05-24T11:36:19.751Z,3.80
2018-05-24T11:37:19.741Z,4.20
2018-05-24T11:38:19.727Z,3.90
2018-05-24T11:39:19.707Z,3.90
2018-05-24T11:40:19.693Z,5.20
2018-05-24T11:41:19.679Z,4.10
2018-05-24T11:42:19.663Z,4.30
2018-05-24T11:43:19.757Z,5.10
2018-05-24T11:44:19.633Z,4.20
2018-05-24T11:45:19.620Z,4.00
2018-05-24T11:46:19.603Z,3.90
2018-05-24T11:47:19.592Z,5.50
2018-05-24T11:48:19.574Z,3.00
2018-05-24T11:49:19.561Z,3.30
2018-05-24T11:50:19.545Z,3.90
2018-05-24T11:51:19.530Z,2.80
2018-05-24T11:52:20.266Z,3.50
2018-05-24T11:53:19.505Z,2.90
2018-05-24T11:54:19.487Z,2.60
2018-05-24T11:55:19.478Z,3.20
2018-05-24T11:56:19.456Z,5.80
2018-05-24T11:57:19.442Z,3.80
2018-05-24T11:58:19.426Z,4.30
2018-05-24T11:59:19.413Z,3.40
2018-05-24T12:00:19.398Z,2.60
2018-05-24T12:01:19.382Z,4.60
2018-05-24T12:02:19.370Z,3.70
2018-05-24T12:03:19.352Z,2.90
2018-05-24T12:04:19.337Z,3.00
2018-05-24T12:05:19.322Z,4.30
2018-05-24T12:06:19.307Z,4.90
2018-05-24T12:07:19.292Z,2.80
2018-05-24T12:08:19.279Z,3.20
2018-05-24T12:09:19.263Z,2.60
2018-05-24T12:10:19.250Z,4.70
2018-05-24T12:11:19.234Z,2.80
2018-05-24T12:12:19.219Z,3.90
2018-05-24T12:13:19.206Z,4.70
2018-05-24T12:14:19.191Z,2.50
2018-05-24T12:15:19.231Z,3.20
2018-05-24T12:16:19.162Z,4.30
2018-05-24T12:17:19.148Z,6.50
2018-05-24T12:18:19.133Z,3.40
2018-05-24T12:19:19.119Z,2.80
2018-05-24T12:20:19.104Z,3.80
2018-05-24T12:21:19.090Z,3.30
2018-05-24T12:22:19.077Z,4.40
2018-05-24T12:23:19.060Z,4.60
2018-05-24T12:24:19.046Z,3.90
2018-05-24T12:25:19.033Z,3.00
2018-05-24T12:26:19.017Z,4.30
2018-05-24T12:27:19.003Z,3.30
2018-05-24T12:28:18.991Z,3.70
2018-05-24T12:29:20.477Z,3.50
2018-05-24T12:30:18.961Z,3.30
2018-05-24T12:31:18.947Z,3.70
2018-05-24T12:32:18.934Z,3.30
2018-05-24T12:33:18.919Z,3.40
2018-05-24T12:34:18.903Z,5.60
2018-05-24T12:35:18.997Z,2.50
2018-05-24T12:36:18.878Z,3.60
2018-05-24T12:37:18.867Z,2.80
2018-05-24T12:38:18.847Z,3.40
2018-05-24T12:39:18.834Z,2.90
2018-05-24T12:40:18.818Z,4.80
2018-05-24T12:41:18.804Z,3.40
2018-05-24T12:42:18.789Z,4.40
2018-05-24T12:43:18.777Z,2.90
2018-05-24T12:44:18.768Z,2.90
2018-05-24T12:45:18.749Z,3.10
2018-05-24T12:46:18.734Z,3.40
2018-05-24T12:47:18.718Z,3.40
2018-05-24T12:48:18.709Z,3.90
2018-05-24T12:49:18.694Z,2.90
2018-05-24T12:50:18.676Z,3.00
2018-05-24T12:51:18.662Z,4.40
2018-05-24T12:52:18.650Z,5.50
2018-05-24T12:53:18.635Z,4.10
2018-05-24T12:54:18.620Z,2.90
2018-05-24T12:55:18.607Z,4.20
2018-05-24T12:56:18.594Z,4.00
2018-05-24T12:57:18.580Z,3.80
2018-05-24T12:58:18.564Z,3.60
2018-05-24T12:59:18.552Z,5.30
2018-05-24T13:00:18.539Z,4.50
2018-05-24T13:01:18.524Z,5.80